createdAt,value
2022-08-26T00:04:11.957Z,6.70
2022-08-26T00:09:16.078Z,7.10
2022-08-26T00:14:18.542Z,6.77
2022-08-26T00:19:22.224Z,6.33
2022-08-26T00:24:24.224Z,6.50
2022-08-26T00:29:27.281Z,6.13
2022-08-26T00:34:29.120Z,6.43
2022-08-26T00:39:31.400Z,6.57
2022-08-26T00:44:33.106Z,7.03
2022-08-26T00:49:44.647Z,7.00
2022-08-26T00:55:40.190Z,7.53
2022-08-26T01:00:41.961Z,7.00
2022-08-26T01:05:47.025Z,6.80
2022-08-26T01:10:49.181Z,6.50
2022-08-26T01:16:00.899Z,6.67
2022-08-26T01:21:47.256Z,7.40
2022-08-26T01:26:49.979Z,6.80
2022-08-26T01:31:57.156Z,7.37
2022-08-26T01:37:21.903Z,7.93
2022-08-26T01:42:26.962Z,6.90
2022-08-26T01:47:33.314Z,7.97
2022-08-26T01:52:41.058Z,7.60
2022-08-26T01:57:48.408Z,7.37
2022-08-26T02:03:15.912Z,7.37
2022-08-26T02:08:36.782Z,8.27
2022-08-26T02:13:51.652Z,6.87
2022-08-26T02:18:58.478Z,6.93
2022-08-26T02:24:17.618Z,7.53
2022-08-26T02:29:44.682Z,8.07
2022-08-26T02:34:47.156Z,8.07
2022-08-26T02:39:48.899Z,7.10
2022-08-26T02:44:50.787Z,8.07
2022-08-26T02:49:52.904Z,9.27
2022-08-26T02:54:54.678Z,8.10
2022-08-26T02:59:57.273Z,8.23
2022-08-26T03:05:02.536Z,8.20
2022-08-26T03:10:08.764Z,7.97
2022-08-26T03:15:17.996Z,7.80
2022-08-26T03:20:20.485Z,8.70
2022-08-26T03:25:23.068Z,8.23
2022-08-26T03:30:44.855Z,7.30
2022-08-26T03:35:50.778Z,8.57
2022-08-26T03:40:52.706Z,8.70
2022-08-26T03:45:54.374Z,8.10
2022-08-26T03:50:56.473Z,8.00
2022-08-26T03:55:59.558Z,8.07
2022-08-26T04:01:01.257Z,8.77
2022-08-26T04:06:04.542Z,8.27
2022-08-26T04:11:07.286Z,8.20
2022-08-26T04:16:10.194Z,8.47
2022-08-26T04:21:12.746Z,8.57
2022-08-26T04:26:20.837Z,8.17
2022-08-26T04:31:22.970Z,8.53
2022-08-26T04:36:25.249Z,8.10
2022-08-26T04:41:27.798Z,8.87
2022-08-26T04:46:33.648Z,9.43
2022-08-26T04:51:37.265Z,9.37
2022-08-26T04:56:45.148Z,9.70
2022-08-26T05:01:52.317Z,9.13
2022-08-26T05:06:59.268Z,10.33
2022-08-26T05:12:04.878Z,9.10
2022-08-26T05:17:06.807Z,9.00
2022-08-26T05:22:08.543Z,8.80
2022-08-26T05:27:11.781Z,9.23
2022-08-26T05:32:13.828Z,9.90
2022-08-26T05:37:16.561Z,9.50
2022-08-26T05:42:19.825Z,9.40
2022-08-26T05:47:21.507Z,9.80
2022-08-26T05:52:25.968Z,9.53
2022-08-26T05:57:30.830Z,8.77
2022-08-26T06:02:32.575Z,9.33
2022-08-26T06:07:52.835Z,9.17
2022-08-26T06:12:54.613Z,9.60
2022-08-26T06:17:56.930Z,11.13
2022-08-26T06:23:17.717Z,9.47
2022-08-26T06:28:19.452Z,8.90
2022-08-26T06:33:27.861Z,9.60
2022-08-26T06:38:29.646Z,8.83
2022-08-26T06:43:31.413Z,8.43
2022-08-26T06:48:35.160Z,8.50
2022-08-26T06:53:41.054Z,8.77
2022-08-26T06:58:44.060Z,8.50
2022-08-26T07:03:48.603Z,7.80
2022-08-26T07:08:54.433Z,7.60
2022-08-26T07:13:56.466Z,7.43
2022-08-26T07:18:58.697Z,8.00
2022-08-26T07:24:04.311Z,7.30
2022-08-26T07:29:06.831Z,6.27
2022-08-26T07:34:09.289Z,7.20
2022-08-26T07:39:11.461Z,17.03
2022-08-26T07:44:15.450Z,16.90
2022-08-26T07:49:17.775Z,6.60
2022-08-26T07:54:20.724Z,7.70
2022-08-26T07:59:28.449Z,6.40
2022-08-26T08:04:32.415Z,5.57
2022-08-26T08:09:34.315Z,6.00
2022-08-26T08:14:37.306Z,5.93
2022-08-26T08:19:39.504Z,5.33
2022-08-26T08:24:41.214Z,4.73
2022-08-26T08:29:43.429Z,5.00
2022-08-26T08:34:45.157Z,4.77
2022-08-26T08:39:46.883Z,5.20
2022-08-26T08:44:57.182Z,5.90
2022-08-26T08:50:20.467Z,5.07
2022-08-26T08:55:28.248Z,6.43
2022-08-26T09:00:46.979Z,4.70
2022-08-26T09:05:53.271Z,5.07
2022-08-26T09:11:00.890Z,5.53
2022-08-26T09:16:13.913Z,4.03
2022-08-26T09:21:23.517Z,3.53
2022-08-26T09:26:45.237Z,3.90
2022-08-26T09:31:50.776Z,5.17
2022-08-26T09:36:54.991Z,4.40
2022-08-26T09:42:19.819Z,5.00
2022-08-26T09:47:55.957Z,4.77
2022-08-26T09:53:09.996Z,5.27
2022-08-26T09:58:37.973Z,5.07
2022-08-26T10:03:40.917Z,4.70
2022-08-26T10:08:49.844Z,4.50
2022-08-26T10:14:12.516Z,5.67
2022-08-26T10:19:29.150Z,5.37
2022-08-26T10:24:55.151Z,5.07
2022-08-26T10:30:10.354Z,4.60
2022-08-26T10:35:17.174Z,4.70
2022-08-26T10:40:50.075Z,5.50
2022-08-26T10:46:06.898Z,5.37
2022-08-26T10:51:12.742Z,4.63
2022-08-26T10:56:36.954Z,5.53
2022-08-26T11:01:52.405Z,5.20
2022-08-26T11:07:42.039Z,4.47
2022-08-26T11:12:45.339Z,5.50
2022-08-26T11:17:50.814Z,6.80
2022-08-26T11:22:56.510Z,5.73
2022-08-26T11:28:02.222Z,6.10
2022-08-26T11:33:06.036Z,5.57
2022-08-26T11:38:28.954Z,6.20
2022-08-26T11:43:33.561Z,2.13
2022-08-26T11:48:43.494Z,2.40
2022-08-26T11:53:47.218Z,2.93
2022-08-26T11:58:49.890Z,2.13
2022-08-26T12:03:53.258Z,5.60
2022-08-26T12:09:01.279Z,3.10
2022-08-26T12:14:25.902Z,2.80
2022-08-26T12:19:34.034Z,3.03
2022-08-26T12:24:47.666Z,3.47
2022-08-26T12:30:14.033Z,3.70
2022-08-26T12:35:20.615Z,3.20
2022-08-26T12:40:43.167Z,3.07
2022-08-26T12:46:00.487Z,3.07
2022-08-26T12:51:06.074Z,3.07
2022-08-26T12:56:24.612Z,2.73
2022-08-26T13:01:26.492Z,3.80
2022-08-26T13:06:31.115Z,4.20
2022-08-26T13:11:55.735Z,4.20
2022-08-26T13:16:57.516Z,4.20
2022-08-26T13:22:01.192Z,3.67
2022-08-26T13:27:06.850Z,4.57
2022-08-26T13:32:09.727Z,4.23
2022-08-26T13:37:12.227Z,4.00
2022-08-26T13:42:14.175Z,3.20
2022-08-26T13:47:16.854Z,3.70
2022-08-26T13:52:18.633Z,4.23
2022-08-26T13:57:32.150Z,4.40
2022-08-26T14:02:33.910Z,4.07
2022-08-26T14:07:35.781Z,3.87
2022-08-26T14:12:37.568Z,5.20
2022-08-26T14:17:39.819Z,4.70
2022-08-26T14:23:03.585Z,5.10
2022-08-26T14:28:06.261Z,4.63
2022-08-26T14:33:14.214Z,4.30
2022-08-26T14:38:16.636Z,4.20
2022-08-26T14:43:18.437Z,4.20
2022-08-26T14:48:20.248Z,7.40
2022-08-26T14:53:40.139Z,8.20
2022-08-26T14:58:41.896Z,6.30
2022-08-26T15:03:43.770Z,4.87
2022-08-26T15:08:45.771Z,5.70
2022-08-26T15:13:47.859Z,5.20
2022-08-26T15:18:51.555Z,5.50
2022-08-26T15:23:54.319Z,5.20
2022-08-26T15:28:56.857Z,5.53
2022-08-26T15:34:02.659Z,5.10
2022-08-26T15:39:07.471Z,5.27
2022-08-26T15:44:10.631Z,5.83
2022-08-26T15:49:18.520Z,5.97
2022-08-26T15:54:23.862Z,5.90
2022-08-26T15:59:25.807Z,5.83
2022-08-26T16:04:28.254Z,5.50
2022-08-26T16:09:30.728Z,6.87
2022-08-26T16:14:32.669Z,7.77
2022-08-26T16:19:34.473Z,7.60
2022-08-26T16:24:37.156Z,6.60
2022-08-26T16:29:39.711Z,6.33
2022-08-26T16:34:55.249Z,6.50
2022-08-26T16:39:58.616Z,6.67
2022-08-26T16:45:00.500Z,7.53
2022-08-26T16:50:06.590Z,7.50
2022-08-26T16:55:15.731Z,7.57
2022-08-26T17:00:32.076Z,7.40
2022-08-26T17:05:34.155Z,9.07
2022-08-26T17:10:36.168Z,7.03
2022-08-26T17:15:37.966Z,7.73
2022-08-26T17:20:39.760Z,7.93
2022-08-26T17:25:41.612Z,9.83
2022-08-26T17:30:44.324Z,8.93
2022-08-26T17:35:46.564Z,8.57
2022-08-26T17:40:49.868Z,11.50
2022-08-26T17:45:51.655Z,9.00
2022-08-26T17:50:53.666Z,10.33
2022-08-26T17:55:55.386Z,10.70
2022-08-26T18:00:57.100Z,10.90
2022-08-26T18:05:58.904Z,8.90
2022-08-26T18:11:00.654Z,9.97
2022-08-26T18:16:06.382Z,10.53
2022-08-26T18:21:19.834Z,10.00
2022-08-26T18:26:35.074Z,11.20
2022-08-26T18:31:37.377Z,10.13
2022-08-26T18:36:40.327Z,8.93
2022-08-26T18:41:48.448Z,9.80
2022-08-26T18:46:51.517Z,10.57
2022-08-26T18:51:53.407Z,10.20
2022-08-26T18:56:56.283Z,9.47
2022-08-26T19:01:58.917Z,9.80
2022-08-26T19:07:00.837Z,11.00
2022-08-26T19:12:04.210Z,13.10
2022-08-26T19:17:07.402Z,11.90
2022-08-26T19:22:09.216Z,12.90
2022-08-26T19:27:14.696Z,10.73
2022-08-26T19:32:17.572Z,12.77
2022-08-26T19:37:21.146Z,11.77
2022-08-26T19:42:22.886Z,13.80
2022-08-26T19:47:26.215Z,11.63
2022-08-26T19:52:30.019Z,10.33
2022-08-26T19:57:32.213Z,10.77
2022-08-26T20:02:34.126Z,9.40
2022-08-26T20:07:36.711Z,10.47
2022-08-26T20:12:41.569Z,9.03
2022-08-26T20:17:43.440Z,12.00
2022-08-26T20:22:45.746Z,8.13
2022-08-26T20:27:47.827Z,8.30
2022-08-26T20:32:49.707Z,7.43
2022-08-26T20:37:51.518Z,8.13
2022-08-26T20:42:53.286Z,8.80
2022-08-26T20:47:55.152Z,9.17
2022-08-26T20:52:56.910Z,8.77
2022-08-26T20:57:58.662Z,11.90
2022-08-26T21:03:00.456Z,9.07
2022-08-26T21:08:02.533Z,9.00
2022-08-26T21:13:04.438Z,9.10
2022-08-26T21:18:06.301Z,9.90
2022-08-26T21:23:08.111Z,9.33
2022-08-26T21:28:10.247Z,14.10
2022-08-26T21:33:12.141Z,8.90
2022-08-26T21:38:13.874Z,8.27
2022-08-26T21:43:27.745Z,21.00
2022-08-26T21:48:40.283Z,10.70
2022-08-26T21:53:42.291Z,10.10
2022-08-26T21:58:44.686Z,11.40
2022-08-26T22:03:48.442Z,10.83
2022-08-26T22:08:50.658Z,9.53
2022-08-26T22:13:52.509Z,8.57
2022-08-26T22:18:55.156Z,9.20
2022-08-26T22:23:58.590Z,8.00
2022-08-26T22:29:01.855Z,8.10
2022-08-26T22:34:12.234Z,9.07
2022-08-26T22:39:19.950Z,9.00
2022-08-26T22:44:22.515Z,9.70
2022-08-26T22:49:24.883Z,7.50
2022-08-26T22:54:26.694Z,7.30
2022-08-26T22:59:28.498Z,8.43
2022-08-26T23:04:30.324Z,8.47
2022-08-26T23:09:32.278Z,7.80
2022-08-26T23:14:34.222Z,9.03
2022-08-26T23:19:36.125Z,10.23
2022-08-26T23:24:37.868Z,7.33
2022-08-26T23:29:39.833Z,6.83
2022-08-26T23:34:56.560Z,7.53
2022-08-26T23:40:02.156Z,8.90
2022-08-26T23:45:12.762Z,8.80
2022-08-26T23:50:14.743Z,8.13
2022-08-26T23:55:16.907Z,8.23
